Time;durP1;ratioP1;P1;durP2;ratioP2;P2;SDS_P1;SDS_P2;PMS_P1;PMS_P2;Temp;Humidity;BMP_temperature;BMP_pressure;BME280_temperature;BME280_humidity;BME280_pressure;Samples;Min_cycle;Max_cycle;Signal;HPM_P1;HPM_P2
2023/08/20 00:00:46;;;;;;;7.38;5.40;;;;;;;;;;5002146;28;20239;-83
2023/08/20 00:03:14;;;;;;;6.15;5.55;;;;;;;;;;5027822;28;20238;-83
2023/08/20 00:05:41;;;;;;;5.43;4.88;;;;;;;;;;5022590;28;20271;-83
2023/08/20 00:08:08;;;;;;;6.72;5.57;;;;;;;;;;5023729;28;20209;-83
2023/08/20 00:10:35;;;;;;;6.07;4.63;;;;;;;;;;5020455;28;20231;-83
2023/08/20 00:13:04;;;;;;;5.78;5.00;;;;;;;;;;5020917;28;20208;-82
2023/08/20 00:15:32;;;;;;;8.05;5.18;;;;;;;;;;5019646;28;20244;-82
2023/08/20 00:17:59;;;;;;;6.25;5.30;;;;;;;;;;5017710;28;20483;-83
2023/08/20 00:20:28;;;;;;;7.18;5.43;;;;;;;;;;5002601;28;20253;-83
2023/08/20 00:22:56;;;;;;;9.57;5.00;;;;;;;;;;5001013;28;20306;-82
2023/08/20 00:25:23;;;;;;;7.10;5.18;;;;;;;;;;5000236;28;20239;-83
2023/08/20 00:27:50;;;;;;;5.35;4.85;;;;;;;;;;5002222;28;20212;-82
2023/08/20 00:30:18;;;;;;;6.97;5.40;;;;;;;;;;5001497;28;20701;-83
2023/08/20 00:32:45;;;;;;;5.85;5.28;;;;;;;;;;5000686;28;20228;-82
2023/08/20 00:35:12;;;;;;;5.97;4.90;;;;;;;;;;5002392;28;20219;-83
2023/08/20 00:37:40;;;;;;;6.15;5.20;;;;;;;;;;5002245;28;20347;-82
2023/08/20 00:40:09;;;;;;;7.30;5.20;;;;;;;;;;4998176;28;20215;-83
2023/08/20 00:42:36;;;;;;;10.35;5.95;;;;;;;;;;5006699;28;20231;-82
2023/08/20 00:45:03;;;;;;;9.02;5.45;;;;;;;;;;4998739;28;20200;-83
2023/08/20 00:47:32;;;;;;;11.07;6.57;;;;;;;;;;4998931;28;20211;-82
2023/08/20 00:50:00;;;;;;;7.30;5.28;;;;;;;;;;5001844;28;20246;-82
2023/08/20 00:52:27;;;;;;;7.97;5.47;;;;;;;;;;5002172;28;20231;-82
2023/08/20 00:54:54;;;;;;;6.85;5.65;;;;;;;;;;4999668;28;20218;-83
2023/08/20 00:57:21;;;;;;;6.82;5.35;;;;;;;;;;4997926;28;20231;-82
2023/08/20 00:59:49;;;;;;;6.45;5.38;;;;;;;;;;4999840;28;20577;-82
2023/08/20 01:02:17;;;;;;;5.70;5.10;;;;;;;;;;5007151;28;20289;-82
2023/08/20 01:04:46;;;;;;;5.95;5.32;;;;;;;;;;5001154;28;20681;-82
2023/08/20 01:07:16;;;;;;;6.30;5.00;;;;;;;;;;4995826;28;20724;-82
2023/08/20 01:09:50;;;;;;;7.00;4.70;;;;;;;;;;5009581;28;20202;-82
2023/08/20 01:12:18;;;;;;;8.55;5.53;;;;;;;;;;5005852;28;20238;-82
2023/08/20 01:14:45;;;;;;;6.10;4.88;;;;;;;;;;5010854;28;20207;-82
2023/08/20 01:17:12;;;;;;;5.97;5.18;;;;;;;;;;5002168;28;20605;-82
2023/08/20 01:19:39;;;;;;;5.90;4.90;;;;;;;;;;5001948;28;20679;-82
2023/08/20 01:22:23;;;;;;;6.75;6.05;;;;;;;;;;5004421;28;20786;-82
2023/08/20 01:25:00;;;;;;;8.88;5.50;;;;;;;;;;5004523;28;20218;-82
2023/08/20 01:27:30;;;;;;;6.07;5.47;;;;;;;;;;5005502;28;20226;-82
2023/08/20 01:30:00;;;;;;;5.90;5.40;;;;;;;;;;5002043;28;20611;-82
2023/08/20 01:32:27;;;;;;;8.95;5.35;;;;;;;;;;5004736;28;20232;-82
2023/08/20 01:34:54;;;;;;;6.15;5.43;;;;;;;;;;5004582;28;20700;-82
2023/08/20 01:37:23;;;;;;;7.80;5.45;;;;;;;;;;5004883;28;20238;-82
2023/08/20 01:39:50;;;;;;;8.35;5.28;;;;;;;;;;5003070;28;20298;-82
2023/08/20 01:42:17;;;;;;;8.63;6.07;;;;;;;;;;5000946;28;20722;-82
2023/08/20 01:44:44;;;;;;;7.78;5.18;;;;;;;;;;5003056;28;20564;-82
2023/08/20 01:47:12;;;;;;;8.50;5.57;;;;;;;;;;5004814;28;20238;-82
2023/08/20 01:49:39;;;;;;;7.15;5.28;;;;;;;;;;4996791;28;20215;-82
2023/08/20 01:52:06;;;;;;;7.82;6.05;;;;;;;;;;5003298;28;20231;-82
2023/08/20 01:54:34;;;;;;;5.80;5.30;;;;;;;;;;5007396;28;20219;-82
2023/08/20 01:57:01;;;;;;;6.00;5.40;;;;;;;;;;5002398;28;20231;-82
2023/08/20 01:59:28;;;;;;;8.07;6.30;;;;;;;;;;5004828;28;20211;-82
2023/08/20 02:01:55;;;;;;;12.20;5.65;;;;;;;;;;5010110;28;20231;-82
2023/08/20 02:04:24;;;;;;;6.45;5.82;;;;;;;;;;5005399;28;20204;-82
2023/08/20 02:06:51;;;;;;;5.82;5.25;;;;;;;;;;5002811;28;20227;-82
2023/08/20 02:09:19;;;;;;;6.40;5.50;;;;;;;;;;5002364;28;20632;-82
2023/08/20 02:11:46;;;;;;;5.93;5.30;;;;;;;;;;4996199;28;20240;-82
2023/08/20 02:14:13;;;;;;;7.38;4.93;;;;;;;;;;5000958;28;20295;-82
2023/08/20 02:16:40;;;;;;;7.15;4.93;;;;;;;;;;5001248;28;20781;-82
2023/08/20 02:19:07;;;;;;;5.32;4.50;;;;;;;;;;5003656;28;20583;-82
2023/08/20 02:21:36;;;;;;;6.20;5.15;;;;;;;;;;5003260;28;20721;-83
2023/08/20 02:24:03;;;;;;;6.38;5.05;;;;;;;;;;5004934;28;20199;-82
2023/08/20 02:26:30;;;;;;;6.70;5.43;;;;;;;;;;5004709;28;20227;-82
2023/08/20 02:28:57;;;;;;;6.47;5.68;;;;;;;;;;5001852;28;20212;-82
2023/08/20 02:31:24;;;;;;;6.30;5.68;;;;;;;;;;5003200;28;20250;-82
2023/08/20 02:33:51;;;;;;;6.82;5.72;;;;;;;;;;5002671;28;20211;-82
2023/08/20 02:36:18;;;;;;;8.43;5.65;;;;;;;;;;5004011;28;20713;-82
2023/08/20 02:38:47;;;;;;;10.18;6.03;;;;;;;;;;5003340;28;20214;-83
2023/08/20 02:41:14;;;;;;;7.90;5.78;;;;;;;;;;4999476;28;20580;-82
2023/08/20 02:43:41;;;;;;;9.45;5.93;;;;;;;;;;5003614;28;20692;-82
2023/08/20 02:46:09;;;;;;;9.57;5.78;;;;;;;;;;5000555;28;20263;-82
2023/08/20 02:48:36;;;;;;;11.20;6.18;;;;;;;;;;5000576;28;20219;-82
2023/08/20 02:51:03;;;;;;;7.22;5.00;;;;;;;;;;5002467;28;20239;-82
2023/08/20 02:53:30;;;;;;;5.53;5.03;;;;;;;;;;5004438;28;20224;-82
2023/08/20 02:55:58;;;;;;;10.63;6.22;;;;;;;;;;5001299;28;20704;-82
2023/08/20 02:58:26;;;;;;;5.22;4.72;;;;;;;;;;5000374;28;20672;-82
2023/08/20 03:00:53;;;;;;;8.00;5.47;;;;;;;;;;5005934;28;20253;-82
2023/08/20 03:03:20;;;;;;;7.88;5.00;;;;;;;;;;5006775;28;20224;-82
2023/08/20 03:05:47;;;;;;;6.85;5.10;;;;;;;;;;5000580;28;20235;-83
2023/08/20 03:08:14;;;;;;;6.68;4.97;;;;;;;;;;5003311;28;20214;-82
2023/08/20 03:10:41;;;;;;;5.85;4.90;;;;;;;;;;5003412;28;20227;-83
2023/08/20 03:13:09;;;;;;;6.05;4.47;;;;;;;;;;5004032;28;20646;-82
2023/08/20 03:15:36;;;;;;;5.63;4.57;;;;;;;;;;5003739;28;20587;-81
2023/08/20 03:18:04;;;;;;;6.25;4.50;;;;;;;;;;5002121;28;20610;-82
2023/08/20 03:20:31;;;;;;;6.18;5.57;;;;;;;;;;5002634;28;20231;-83
2023/08/20 03:22:58;;;;;;;6.05;5.13;;;;;;;;;;5001658;28;20237;-82
2023/08/20 03:25:26;;;;;;;8.50;5.47;;;;;;;;;;5000013;28;20235;-82
2023/08/20 03:27:53;;;;;;;6.57;5.65;;;;;;;;;;5000771;28;20215;-83
2023/08/20 03:30:22;;;;;;;7.95;5.28;;;;;;;;;;5002705;28;20208;-83
2023/08/20 03:32:49;;;;;;;5.20;4.75;;;;;;;;;;5002340;28;20310;-82
2023/08/20 03:35:16;;;;;;;6.10;4.88;;;;;;;;;;4999947;28;20212;-83
2023/08/20 03:37:43;;;;;;;5.93;4.65;;;;;;;;;;4999287;28;20784;-82
2023/08/20 03:40:11;;;;;;;5.65;5.05;;;;;;;;;;5001224;28;20673;-83
2023/08/20 03:42:38;;;;;;;6.32;5.30;;;;;;;;;;5003836;28;20234;-82
2023/08/20 03:45:05;;;;;;;5.93;5.30;;;;;;;;;;5000187;28;20215;-83
2023/08/20 03:47:33;;;;;;;5.30;4.85;;;;;;;;;;4999850;28;20211;-82
2023/08/20 03:50:00;;;;;;;4.60;4.20;;;;;;;;;;5001099;28;20208;-82
2023/08/20 03:52:27;;;;;;;5.50;4.25;;;;;;;;;;4999713;28;20227;-82
2023/08/20 03:54:55;;;;;;;5.18;4.28;;;;;;;;;;5001349;28;20208;-82
2023/08/20 03:57:22;;;;;;;7.07;4.05;;;;;;;;;;5002448;28;20259;-82
2023/08/20 03:59:49;;;;;;;5.00;4.50;;;;;;;;;;5002641;28;20294;-82
2023/08/20 04:02:16;;;;;;;5.15;3.60;;;;;;;;;;4996899;28;20739;-82
2023/08/20 04:04:44;;;;;;;4.70;4.20;;;;;;;;;;5003262;28;20587;-82
2023/08/20 04:07:11;;;;;;;6.03;4.75;;;;;;;;;;5002538;28;20654;-82
2023/08/20 04:09:39;;;;;;;5.30;4.80;;;;;;;;;;5000426;28;20212;-82
2023/08/20 04:12:07;;;;;;;6.30;4.40;;;;;;;;;;5001573;28;20236;-82
2023/08/20 04:14:34;;;;;;;5.72;4.57;;;;;;;;;;5003317;28;20203;-82
2023/08/20 04:17:01;;;;;;;6.53;5.10;;;;;;;;;;5000282;28;20244;-82
2023/08/20 04:19:28;;;;;;;4.88;4.40;;;;;;;;;;5004126;28;20196;-82
2023/08/20 04:21:57;;;;;;;7.43;4.70;;;;;;;;;;4997910;28;20235;-82
2023/08/20 04:24:24;;;;;;;5.32;4.82;;;;;;;;;;5011454;28;20211;-82
2023/08/20 04:26:51;;;;;;;5.28;4.68;;;;;;;;;;5010921;28;20254;-82
2023/08/20 04:29:18;;;;;;;6.30;4.88;;;;;;;;;;5010300;28;20524;-82
2023/08/20 04:31:46;;;;;;;5.32;4.82;;;;;;;;;;5009789;28;20238;-82
2023/08/20 04:34:13;;;;;;;5.90;5.40;;;;;;;;;;5010807;28;20207;-82
2023/08/20 04:36:40;;;;;;;5.53;4.60;;;;;;;;;;5010502;28;20246;-82
2023/08/20 04:39:08;;;;;;;5.28;4.78;;;;;;;;;;5010458;28;20215;-82
2023/08/20 04:41:35;;;;;;;5.57;5.07;;;;;;;;;;5009566;28;20235;-82
2023/08/20 04:44:02;;;;;;;5.78;5.28;;;;;;;;;;5011277;28;20729;-82
2023/08/20 04:46:30;;;;;;;6.38;4.47;;;;;;;;;;5014436;28;20250;-82
2023/08/20 04:48:57;;;;;;;6.28;5.55;;;;;;;;;;5014515;28;20219;-82
2023/08/20 04:51:24;;;;;;;6.55;5.95;;;;;;;;;;5013633;28;20727;-82
2023/08/20 04:53:51;;;;;;;6.63;5.68;;;;;;;;;;5014981;28;20214;-82
2023/08/20 04:56:19;;;;;;;8.43;6.18;;;;;;;;;;5014288;28;20250;-82
2023/08/20 04:58:46;;;;;;;6.60;6.00;;;;;;;;;;5014220;28;20204;-82
2023/08/20 05:01:13;;;;;;;7.47;6.00;;;;;;;;;;5011015;28;20720;-83
2023/08/20 05:03:40;;;;;;;7.90;6.13;;;;;;;;;;5003309;28;20223;-82
2023/08/20 05:06:07;;;;;;;11.38;6.90;;;;;;;;;;5014169;28;20242;-82
2023/08/20 05:08:34;;;;;;;9.55;6.30;;;;;;;;;;5014298;28;20207;-82
2023/08/20 05:11:03;;;;;;;11.15;6.22;;;;;;;;;;5011243;28;20238;-82
2023/08/20 05:13:31;;;;;;;9.20;6.80;;;;;;;;;;4994839;28;20714;-82
2023/08/20 05:15:58;;;;;;;10.10;8.27;;;;;;;;;;4994263;28;20646;-82
2023/08/20 05:18:26;;;;;;;8.98;7.22;;;;;;;;;;4994337;28;20487;-82
2023/08/20 05:20:53;;;;;;;9.35;7.28;;;;;;;;;;5007092;28;20673;-83
2023/08/20 05:23:20;;;;;;;10.85;6.97;;;;;;;;;;5014209;28;20235;-82
2023/08/20 05:25:47;;;;;;;9.95;8.02;;;;;;;;;;5009552;28;20242;-82
2023/08/20 05:28:14;;;;;;;7.80;7.00;;;;;;;;;;5013517;28;20207;-81
2023/08/20 05:30:43;;;;;;;8.02;7.15;;;;;;;;;;5012591;28;20235;-82
2023/08/20 05:33:10;;;;;;;8.40;7.10;;;;;;;;;;5013829;28;20713;-82
2023/08/20 05:35:37;;;;;;;9.50;7.05;;;;;;;;;;5013448;28;20234;-82
2023/08/20 05:38:04;;;;;;;7.95;7.03;;;;;;;;;;5013459;28;20234;-82
2023/08/20 05:40:31;;;;;;;7.65;6.85;;;;;;;;;;5002294;28;20239;-82
2023/08/20 05:42:58;;;;;;;10.02;6.65;;;;;;;;;;4994390;28;20220;-82
2023/08/20 05:45:25;;;;;;;8.82;6.90;;;;;;;;;;4993643;28;20232;-83
2023/08/20 05:47:53;;;;;;;10.25;8.32;;;;;;;;;;4993811;28;20204;-83
2023/08/20 05:50:21;;;;;;;13.73;8.90;;;;;;;;;;5001468;28;20208;-82
2023/08/20 05:52:48;;;;;;;12.63;8.82;;;;;;;;;;5013347;28;20227;-82
2023/08/20 05:55:15;;;;;;;10.48;9.25;;;;;;;;;;5012669;28;20677;-83
2023/08/20 05:57:42;;;;;;;9.90;8.95;;;;;;;;;;5013443;28;20238;-81
2023/08/20 06:00:11;;;;;;;14.60;10.40;;;;;;;;;;5004430;28;20693;-83
2023/08/20 06:02:38;;;;;;;12.23;10.32;;;;;;;;;;5007239;28;20227;-82
2023/08/20 06:05:07;;;;;;;11.38;10.25;;;;;;;;;;5012855;28;20669;-82
2023/08/20 06:07:35;;;;;;;10.93;9.73;;;;;;;;;;5013174;28;20299;-82
2023/08/20 06:10:02;;;;;;;14.77;10.40;;;;;;;;;;5006688;28;20204;-82
2023/08/20 06:12:29;;;;;;;11.90;10.68;;;;;;;;;;5001138;28;20684;-82
2023/08/20 06:14:56;;;;;;;12.68;10.57;;;;;;;;;;5013272;28;20587;-82
2023/08/20 06:17:23;;;;;;;14.02;10.85;;;;;;;;;;5012523;28;20243;-81
2023/08/20 06:19:50;;;;;;;10.82;9.75;;;;;;;;;;4997441;28;20222;-80
2023/08/20 06:22:19;;;;;;;10.63;9.52;;;;;;;;;;4992798;28;20743;-81
2023/08/20 06:24:46;;;;;;;12.85;9.90;;;;;;;;;;4993552;28;20684;-82
2023/08/20 06:27:13;;;;;;;12.57;9.57;;;;;;;;;;4987415;28;20620;-83
2023/08/20 06:29:40;;;;;;;10.70;9.50;;;;;;;;;;4992858;28;20230;-82
2023/08/20 06:32:07;;;;;;;12.52;10.18;;;;;;;;;;4998211;28;20235;-83
2023/08/20 06:34:36;;;;;;;13.27;9.60;;;;;;;;;;5000397;28;20211;-83
2023/08/20 06:37:03;;;;;;;14.68;9.90;;;;;;;;;;5004176;28;20228;-83
2023/08/20 06:39:31;;;;;;;12.38;9.13;;;;;;;;;;4992813;28;20242;-84
2023/08/20 06:41:59;;;;;;;10.85;9.05;;;;;;;;;;5004291;28;20809;-83
2023/08/20 06:44:26;;;;;;;9.95;8.52;;;;;;;;;;5012099;28;20208;-83
2023/08/20 06:46:53;;;;;;;12.20;9.00;;;;;;;;;;5001145;28;20234;-83
2023/08/20 06:49:20;;;;;;;10.57;8.30;;;;;;;;;;4997839;28;20204;-84
2023/08/20 06:51:47;;;;;;;11.63;7.65;;;;;;;;;;4993001;28;20275;-83
2023/08/20 06:54:15;;;;;;;8.38;7.57;;;;;;;;;;4993222;28;20208;-84
2023/08/20 06:56:44;;;;;;;9.23;8.35;;;;;;;;;;4992929;28;20263;-83
2023/08/20 06:59:11;;;;;;;8.95;8.05;;;;;;;;;;4991766;28;20247;-84
2023/08/20 07:01:38;;;;;;;8.25;7.50;;;;;;;;;;4997313;28;20588;-84
2023/08/20 07:04:06;;;;;;;10.55;7.57;;;;;;;;;;5012461;28;20207;-85
2023/08/20 07:06:33;;;;;;;9.10;7.78;;;;;;;;;;5012024;28;20315;-84
2023/08/20 07:09:00;;;;;;;9.65;7.47;;;;;;;;;;5011599;28;20207;-85
2023/08/20 07:11:27;;;;;;;8.00;7.22;;;;;;;;;;5012014;28;20242;-87
2023/08/20 07:13:55;;;;;;;9.98;6.75;;;;;;;;;;5014059;28;20273;-86
2023/08/20 07:16:22;;;;;;;9.50;7.60;;;;;;;;;;5011561;28;20246;-85
2023/08/20 07:18:49;;;;;;;8.65;6.60;;;;;;;;;;4995114;28;20687;-85
2023/08/20 07:21:16;;;;;;;9.30;6.80;;;;;;;;;;4995406;28;20228;-85
2023/08/20 07:23:43;;;;;;;8.00;6.70;;;;;;;;;;5011968;28;20234;-86
2023/08/20 07:26:12;;;;;;;9.75;6.78;;;;;;;;;;5011574;28;20239;-86
2023/08/20 07:28:57;;;;;;;8.35;5.97;;;;;;;;;;5011764;28;20643;-84
2023/08/20 07:31:25;;;;;;;8.55;6.30;;;;;;;;;;5011870;28;20713;-85
2023/08/20 07:33:53;;;;;;;8.02;6.00;;;;;;;;;;5005150;28;20705;-85
2023/08/20 07:36:21;;;;;;;7.25;6.55;;;;;;;;;;4991882;28;20243;-85
2023/08/20 07:38:48;;;;;;;6.18;5.57;;;;;;;;;;4991988;28;20298;-86
2023/08/20 07:41:16;;;;;;;6.50;5.90;;;;;;;;;;4991710;28;20236;-87
2023/08/20 07:43:43;;;;;;;8.35;5.75;;;;;;;;;;4992651;28;20294;-85
2023/08/20 07:46:11;;;;;;;8.65;5.90;;;;;;;;;;4992047;28;20736;-86
2023/08/20 07:48:39;;;;;;;7.78;5.50;;;;;;;;;;4988224;28;20200;-85
2023/08/20 07:51:07;;;;;;;7.40;5.38;;;;;;;;;;4988494;28;20247;-84
2023/08/20 07:53:34;;;;;;;7.05;5.15;;;;;;;;;;4992970;28;20295;-86
2023/08/20 07:56:01;;;;;;;6.72;5.30;;;;;;;;;;4991443;28;20235;-84
2023/08/20 07:58:29;;;;;;;7.18;5.15;;;;;;;;;;4991672;28;20220;-84
2023/08/20 08:00:57;;;;;;;6.30;5.50;;;;;;;;;;4990885;28;20231;-85
2023/08/20 08:03:26;;;;;;;7.00;5.68;;;;;;;;;;4991877;28;20239;-85
2023/08/20 08:05:54;;;;;;;8.23;5.50;;;;;;;;;;4991613;28;20232;-84
2023/08/20 08:08:22;;;;;;;5.43;4.80;;;;;;;;;;4991819;28;20215;-84
2023/08/20 08:10:49;;;;;;;8.32;5.78;;;;;;;;;;5003176;28;20235;-85
2023/08/20 08:13:17;;;;;;;6.25;5.15;;;;;;;;;;5013776;28;20227;-86
2023/08/20 08:15:44;;;;;;;5.57;4.90;;;;;;;;;;5011991;28;20257;-85
2023/08/20 08:18:11;;;;;;;11.05;5.43;;;;;;;;;;5011381;28;20704;-85
2023/08/20 08:20:38;;;;;;;5.38;4.72;;;;;;;;;;5011080;28;20234;-89
2023/08/20 08:23:07;;;;;;;4.78;4.38;;;;;;;;;;5048578;22;20222;-90
2023/08/20 08:25:34;;;;;;;6.97;5.38;;;;;;;;;;5051105;28;20237;-90
2023/08/20 08:28:01;;;;;;;9.10;5.25;;;;;;;;;;5044824;28;20195;-90
2023/08/20 08:30:29;;;;;;;5.75;4.43;;;;;;;;;;5043953;28;20274;-89
2023/08/20 08:32:56;;;;;;;5.47;4.80;;;;;;;;;;5037253;28;20211;-90
2023/08/20 08:35:23;;;;;;;5.25;4.75;;;;;;;;;;5055870;28;20224;-89
2023/08/20 08:37:50;;;;;;;6.97;4.70;;;;;;;;;;5022032;28;20226;-90
2023/08/20 08:40:19;;;;;;;5.55;5.00;;;;;;;;;;5028209;28;20214;-90
2023/08/20 08:42:48;;;;;;;9.35;4.75;;;;;;;;;;5020183;28;20246;-90
2023/08/20 08:45:16;;;;;;;5.70;4.95;;;;;;;;;;5020838;28;20203;-90
2023/08/20 08:47:43;;;;;;;4.68;4.28;;;;;;;;;;5022995;28;20213;-90
2023/08/20 08:50:11;;;;;;;5.40;4.28;;;;;;;;;;5013268;28;20214;-90
2023/08/20 08:52:38;;;;;;;6.63;4.85;;;;;;;;;;5018897;28;20226;-90
2023/08/20 08:55:08;;;;;;;5.22;4.53;;;;;;;;;;5014108;28;20670;-92
2023/08/20 08:57:36;;;;;;;7.47;4.63;;;;;;;;;;5018780;28;20290;-89
2023/08/20 09:00:04;;;;;;;6.22;4.20;;;;;;;;;;5012994;28;20203;-90
2023/08/20 09:02:31;;;;;;;5.45;4.40;;;;;;;;;;5025974;28;20269;-90
2023/08/20 09:04:58;;;;;;;6.15;4.28;;;;;;;;;;5022786;28;20221;-90
2023/08/20 09:07:25;;;;;;;6.40;4.45;;;;;;;;;;5018949;28;20231;-91
2023/08/20 09:09:52;;;;;;;4.78;4.30;;;;;;;;;;5025273;28;20660;-91
2023/08/20 09:12:20;;;;;;;5.35;4.40;;;;;;;;;;5019348;28;20234;-91
2023/08/20 09:14:49;;;;;;;5.53;4.32;;;;;;;;;;5018972;28;20206;-91
2023/08/20 09:17:16;;;;;;;4.68;4.22;;;;;;;;;;5010843;28;20660;-91
2023/08/20 09:19:44;;;;;;;4.57;4.18;;;;;;;;;;5018141;28;20219;-91
2023/08/20 09:22:12;;;;;;;4.90;4.40;;;;;;;;;;5019754;28;20231;-91
2023/08/20 09:24:47;;;;;;;4.85;4.28;;;;;;;;;;5022312;28;20262;-91
2023/08/20 09:27:15;;;;;;;6.70;4.55;;;;;;;;;;5019623;28;20791;-91
2023/08/20 09:29:49;;;;;;;4.97;4.47;;;;;;;;;;5018372;28;20207;-92
2023/08/20 09:32:17;;;;;;;6.07;4.20;;;;;;;;;;5023720;28;20279;-87
2023/08/20 09:34:44;;;;;;;5.22;4.57;;;;;;;;;;5025992;28;20210;-88
2023/08/20 09:37:11;;;;;;;6.85;4.45;;;;;;;;;;5016616;28;20235;-90
2023/08/20 09:39:38;;;;;;;6.72;4.68;;;;;;;;;;5024713;28;20218;-90
2023/08/20 09:42:06;;;;;;;5.32;4.20;;;;;;;;;;5024849;28;20612;-91
2023/08/20 09:44:35;;;;;;;5.30;4.38;;;;;;;;;;5018100;28;20653;-90
2023/08/20 09:47:05;;;;;;;4.97;3.83;;;;;;;;;;5025147;28;20715;-91
2023/08/20 09:49:34;;;;;;;5.05;4.55;;;;;;;;;;5022630;28;20199;-89
2023/08/20 09:52:03;;;;;;;5.90;4.25;;;;;;;;;;5018863;28;20235;-89
2023/08/20 09:54:35;;;;;;;5.90;3.97;;;;;;;;;;5024672;28;20229;-90
2023/08/20 09:57:02;;;;;;;4.70;4.07;;;;;;;;;;5023622;28;20235;-87
2023/08/20 09:59:30;;;;;;;4.45;4.05;;;;;;;;;;5021497;28;20234;-90
2023/08/20 10:01:58;;;;;;;4.38;3.97;;;;;;;;;;5015356;28;20750;-91
2023/08/20 10:04:26;;;;;;;8.40;5.53;;;;;;;;;;5035115;28;20289;-92
2023/08/20 10:06:55;;;;;;;4.30;3.88;;;;;;;;;;5040553;28;20246;-92
2023/08/20 10:09:22;;;;;;;4.32;3.92;;;;;;;;;;5034633;28;20237;-84
2023/08/20 10:11:49;;;;;;;6.88;3.80;;;;;;;;;;5028027;28;20226;-83
2023/08/20 10:14:17;;;;;;;4.90;3.95;;;;;;;;;;5024694;28;20610;-84
2023/08/20 10:16:44;;;;;;;4.18;3.78;;;;;;;;;;5023157;28;20259;-85
2023/08/20 10:19:11;;;;;;;4.30;3.90;;;;;;;;;;5021702;28;20227;-86
2023/08/20 10:21:45;;;;;;;4.32;3.70;;;;;;;;;;5025029;28;20230;-87
2023/08/20 10:24:18;;;;;;;4.57;3.70;;;;;;;;;;5024451;28;20644;-88
2023/08/20 10:26:46;;;;;;;7.90;3.70;;;;;;;;;;5021194;28;20227;-88
2023/08/20 10:29:32;;;;;;;3.97;3.60;;;;;;;;;;5022464;28;20207;-87
2023/08/20 10:31:59;;;;;;;4.20;3.80;;;;;;;;;;5025336;28;20246;-87
2023/08/20 10:34:34;;;;;;;4.28;3.88;;;;;;;;;;5023074;28;20231;-86
2023/08/20 10:37:04;;;;;;;3.90;3.55;;;;;;;;;;5020901;28;20234;-86
2023/08/20 10:39:31;;;;;;;3.80;3.50;;;;;;;;;;5020510;28;21117;-86
2023/08/20 10:42:16;;;;;;;4.07;3.65;;;;;;;;;;5020379;28;20234;-86
2023/08/20 10:44:59;;;;;;;4.43;3.92;;;;;;;;;;5022569;28;20293;-87
2023/08/20 10:47:27;;;;;;;4.10;3.70;;;;;;;;;;5025201;28;20544;-88
2023/08/20 10:49:54;;;;;;;5.43;3.38;;;;;;;;;;5025722;28;20198;-88
2023/08/20 10:52:25;;;;;;;5.53;4.45;;;;;;;;;;5024854;28;20602;-87
2023/08/20 10:54:52;;;;;;;3.80;3.50;;;;;;;;;;5021869;28;20229;-86
2023/08/20 10:57:21;;;;;;;4.50;2.97;;;;;;;;;;5022961;28;20802;-87
2023/08/20 10:59:58;;;;;;;4.10;3.65;;;;;;;;;;5026305;28;20226;-88
2023/08/20 11:02:25;;;;;;;3.85;3.53;;;;;;;;;;5020014;28;20731;-87
2023/08/20 11:04:53;;;;;;;7.38;4.30;;;;;;;;;;5013632;28;20210;-89
2023/08/20 11:07:20;;;;;;;4.15;3.42;;;;;;;;;;5021946;28;20318;-88
2023/08/20 11:09:49;;;;;;;4.70;3.90;;;;;;;;;;5021849;28;20217;-87
2023/08/20 11:12:17;;;;;;;4.38;3.58;;;;;;;;;;5020368;28;20591;-86
2023/08/20 11:14:44;;;;;;;2.90;2.70;;;;;;;;;;5021553;28;20207;-87
2023/08/20 11:17:11;;;;;;;3.10;2.80;;;;;;;;;;5020023;28;20239;-88
2023/08/20 11:19:38;;;;;;;4.97;2.90;;;;;;;;;;5021062;28;20233;-88
2023/08/20 11:22:05;;;;;;;4.05;3.22;;;;;;;;;;5020497;28;20230;-87
2023/08/20 11:24:32;;;;;;;4.00;3.00;;;;;;;;;;5023527;28;20234;-86
2023/08/20 11:27:00;;;;;;;3.90;2.50;;;;;;;;;;5023931;28;20222;-88
2023/08/20 11:29:28;;;;;;;4.38;3.00;;;;;;;;;;5021258;28;20201;-87
2023/08/20 11:31:55;;;;;;;4.43;3.20;;;;;;;;;;5027191;28;20237;-87
2023/08/20 11:34:22;;;;;;;3.65;3.17;;;;;;;;;;5022091;28;20230;-88
2023/08/20 11:36:51;;;;;;;3.22;2.90;;;;;;;;;;5020966;28;20226;-88
2023/08/20 11:39:18;;;;;;;6.15;2.92;;;;;;;;;;5021489;28;20282;-86
2023/08/20 11:41:45;;;;;;;3.15;2.80;;;;;;;;;;5021075;28;20226;-87
2023/08/20 11:44:20;;;;;;;4.38;3.08;;;;;;;;;;5024778;28;20226;-88
2023/08/20 11:46:47;;;;;;;3.20;2.90;;;;;;;;;;5023240;28;20237;-91
2023/08/20 11:49:15;;;;;;;3.38;3.08;;;;;;;;;;5021485;28;20202;-87
2023/08/20 11:51:43;;;;;;;3.70;2.67;;;;;;;;;;5016186;28;20229;-87
2023/08/20 11:54:12;;;;;;;4.70;3.28;;;;;;;;;;5014195;28;20229;-87
2023/08/20 11:56:45;;;;;;;4.78;2.78;;;;;;;;;;5018223;28;20242;-86
2023/08/20 11:59:14;;;;;;;2.85;2.65;;;;;;;;;;5026969;28;20225;-87
2023/08/20 12:01:41;;;;;;;3.40;2.97;;;;;;;;;;5014068;28;20233;-87
2023/08/20 12:04:09;;;;;;;4.80;3.28;;;;;;;;;;5023226;28;20234;-87
2023/08/20 12:06:36;;;;;;;2.95;2.70;;;;;;;;;;5021726;28;20225;-87
2023/08/20 12:09:04;;;;;;;2.70;2.50;;;;;;;;;;5024954;28;20656;-87
2023/08/20 12:11:33;;;;;;;3.50;2.75;;;;;;;;;;5027657;28;20280;-87
2023/08/20 12:14:00;;;;;;;2.90;2.60;;;;;;;;;;5020322;28;20310;-87
2023/08/20 12:16:29;;;;;;;2.85;2.65;;;;;;;;;;5027573;28;20262;-87
2023/08/20 12:18:56;;;;;;;4.00;2.53;;;;;;;;;;5019442;28;20199;-87
2023/08/20 12:21:23;;;;;;;3.40;2.70;;;;;;;;;;5026888;28;20723;-87
2023/08/20 12:23:50;;;;;;;2.70;2.50;;;;;;;;;;5019274;28;20230;-87
2023/08/20 12:26:18;;;;;;;3.47;2.33;;;;;;;;;;5019450;28;20230;-87
2023/08/20 12:28:45;;;;;;;2.88;2.67;;;;;;;;;;5022343;28;20648;-87
2023/08/20 12:31:12;;;;;;;3.38;3.08;;;;;;;;;;5022774;28;20699;-85
2023/08/20 12:33:40;;;;;;;3.38;3.08;;;;;;;;;;5027853;28;20725;-85
2023/08/20 12:36:07;;;;;;;4.55;2.63;;;;;;;;;;5024631;28;20700;-86
2023/08/20 12:38:34;;;;;;;2.72;2.50;;;;;;;;;;5020436;28;20218;-87
2023/08/20 12:41:03;;;;;;;4.15;2.85;;;;;;;;;;5019154;28;20237;-87
2023/08/20 12:43:31;;;;;;;3.70;2.50;;;;;;;;;;5020065;28;20312;-86
2023/08/20 12:45:58;;;;;;;4.88;2.65;;;;;;;;;;5027005;28;20605;-87
2023/08/20 12:48:25;;;;;;;3.83;2.67;;;;;;;;;;5021682;28;20535;-87
2023/08/20 12:50:53;;;;;;;4.10;2.83;;;;;;;;;;5020474;28;20617;-87
2023/08/20 12:53:21;;;;;;;2.95;2.60;;;;;;;;;;5021890;28;20261;-87
2023/08/20 12:55:48;;;;;;;2.60;2.40;;;;;;;;;;5023960;28;20230;-87
2023/08/20 12:58:15;;;;;;;4.10;2.70;;;;;;;;;;5024510;28;20612;-87
2023/08/20 13:00:42;;;;;;;6.60;3.42;;;;;;;;;;5025334;28;20723;-87
2023/08/20 13:03:10;;;;;;;3.38;2.78;;;;;;;;;;5021660;28;20222;-87
2023/08/20 13:05:37;;;;;;;4.25;2.72;;;;;;;;;;5016624;28;20245;-87
2023/08/20 13:08:06;;;;;;;4.53;2.72;;;;;;;;;;5036447;28;20206;-87
2023/08/20 13:10:34;;;;;;;3.22;2.83;;;;;;;;;;5023758;28;20229;-88
2023/08/20 13:13:02;;;;;;;3.30;2.92;;;;;;;;;;5029880;28;20230;-88
2023/08/20 13:15:29;;;;;;;3.05;2.70;;;;;;;;;;5024954;28;20229;-87
2023/08/20 13:17:57;;;;;;;2.90;2.60;;;;;;;;;;5024318;28;20695;-87
2023/08/20 13:20:24;;;;;;;3.15;2.70;;;;;;;;;;5023859;28;20233;-87
2023/08/20 13:22:52;;;;;;;4.88;2.85;;;;;;;;;;5023369;28;20237;-87
2023/08/20 13:25:22;;;;;;;3.53;2.67;;;;;;;;;;5023219;28;20697;-87
2023/08/20 13:27:49;;;;;;;2.97;2.67;;;;;;;;;;5026658;28;20260;-87
2023/08/20 13:30:17;;;;;;;3.78;2.78;;;;;;;;;;5025987;28;20676;-87
2023/08/20 13:32:44;;;;;;;4.75;3.00;;;;;;;;;;5027027;28;20535;-86
2023/08/20 13:35:11;;;;;;;2.72;2.50;;;;;;;;;;5025970;28;20206;-88
2023/08/20 13:37:38;;;;;;;3.28;2.80;;;;;;;;;;5023246;28;20211;-87
2023/08/20 13:40:07;;;;;;;5.50;2.67;;;;;;;;;;5022520;28;20221;-88
2023/08/20 13:42:35;;;;;;;3.10;2.40;;;;;;;;;;5024432;28;20290;-87
2023/08/20 13:45:02;;;;;;;2.95;2.40;;;;;;;;;;5026037;28;20202;-88
2023/08/20 13:47:29;;;;;;;3.58;2.28;;;;;;;;;;5017626;28;20211;-87
2023/08/20 13:49:56;;;;;;;3.03;2.60;;;;;;;;;;5029087;28;20203;-87
2023/08/20 13:52:23;;;;;;;2.50;2.28;;;;;;;;;;5022611;28;20238;-88
2023/08/20 13:54:50;;;;;;;2.95;2.65;;;;;;;;;;5025867;28;20206;-87
2023/08/20 13:57:17;;;;;;;3.10;2.58;;;;;;;;;;5024974;28;20257;-88
2023/08/20 13:59:46;;;;;;;3.67;2.53;;;;;;;;;;5021855;28;20568;-88
2023/08/20 14:02:13;;;;;;;4.30;2.78;;;;;;;;;;5020699;28;20241;-87
2023/08/20 14:04:40;;;;;;;3.67;3.20;;;;;;;;;;5024969;28;20229;-87
2023/08/20 14:07:07;;;;;;;4.40;3.13;;;;;;;;;;5024771;28;20236;-87
2023/08/20 14:09:35;;;;;;;3.50;3.20;;;;;;;;;;5022749;28;20207;-87
2023/08/20 14:12:02;;;;;;;5.68;3.53;;;;;;;;;;5021747;28;20256;-87
2023/08/20 14:14:30;;;;;;;6.18;3.70;;;;;;;;;;5023329;28;20237;-88
2023/08/20 14:16:58;;;;;;;4.57;3.92;;;;;;;;;;5027885;28;20532;-87
2023/08/20 14:19:25;;;;;;;3.90;3.50;;;;;;;;;;5021840;28;20215;-87
2023/08/20 14:21:52;;;;;;;3.75;3.30;;;;;;;;;;5024798;28;20237;-87
2023/08/20 14:24:19;;;;;;;5.63;3.80;;;;;;;;;;5047789;23;20237;-86
2023/08/20 14:26:46;;;;;;;4.05;3.63;;;;;;;;;;5012539;28;20281;-85
2023/08/20 14:29:13;;;;;;;3.60;3.10;;;;;;;;;;5012871;28;20210;-86
2023/08/20 14:31:39;;;;;;;3.58;3.28;;;;;;;;;;5020298;28;20712;-85
2023/08/20 14:34:08;;;;;;;3.90;3.50;;;;;;;;;;5021244;28;20246;-86
2023/08/20 14:36:35;;;;;;;3.45;2.80;;;;;;;;;;5020466;28;20540;-86
2023/08/20 14:39:04;;;;;;;3.50;2.88;;;;;;;;;;5021004;28;20199;-86
2023/08/20 14:41:31;;;;;;;3.38;3.08;;;;;;;;;;5021761;28;20775;-86
2023/08/20 14:43:58;;;;;;;3.58;2.53;;;;;;;;;;5024174;28;20218;-86